Terminal Aerodrome Forecast
Issued by NWS

Home | Current Version | Previous Version | Text Only | Print | Product List | Glossary On
Versions: 1 2 3 4 5 6 7 8 9 10 11 12 13 14 15 16 17 18 19 20 21 22 23 24 25 26 27 28 29 30
000
FTAK31 PAFA 290529
TAFAGA
TAF
PAGA 290529Z 2906/3006 32006KT P6SM -RA FEW035 OVC050
     FM291200 25002KT 6SM BR BKN007
     FM291800 26005KT P6SM BKN015
     FM292100 27008KT P6SM BKN050
     FM300300 27005KT P6SM SCT250=

USA.gov is the U.S. government's official web portal to all federal, state and local government web resources and services.